createdAt,value
2018-10-02T00:00:13.617Z,93.5
2018-10-02T00:01:14.283Z,93.0
2018-10-02T00:02:14.947Z,93.4
2018-10-02T00:03:15.612Z,94.0
2018-10-02T00:04:16.278Z,94.4
2018-10-02T00:05:16.946Z,94.7
2018-10-02T00:06:17.610Z,94.7
2018-10-02T00:07:18.275Z,94.6
2018-10-02T00:08:18.941Z,95.2
2018-10-02T00:09:19.606Z,95.3
2018-10-02T00:10:20.270Z,95.3
2018-10-02T00:11:20.935Z,95.4
2018-10-02T00:12:21.602Z,95.7
2018-10-02T00:13:22.267Z,95.1
2018-10-02T00:14:22.933Z,95.6
2018-10-02T00:15:23.598Z,95.6
2018-10-02T00:16:24.262Z,96.0
2018-10-02T00:17:24.927Z,95.8
2018-10-02T00:18:25.591Z,96.1
2018-10-02T00:19:26.256Z,96.2
2018-10-02T00:20:26.921Z,97.1
2018-10-02T00:21:27.586Z,96.7
2018-10-02T00:22:28.251Z,96.7
2018-10-02T00:23:28.916Z,96.8
2018-10-02T00:24:29.580Z,97.0
2018-10-02T00:25:30.246Z,97.1
2018-10-02T00:26:30.909Z,96.9
2018-10-02T00:27:31.575Z,97.8
2018-10-02T00:28:32.241Z,97.3
2018-10-02T00:29:32.907Z,97.5
2018-10-02T00:30:33.572Z,97.3
2018-10-02T00:31:34.290Z,97.9
2018-10-02T00:32:34.902Z,97.7
2018-10-02T00:33:35.566Z,98.3
2018-10-02T00:34:36.231Z,98.3
2018-10-02T00:35:36.900Z,98.5
2018-10-02T00:36:37.562Z,98.7
2018-10-02T00:37:38.227Z,98.7
2018-10-02T00:38:38.892Z,98.7
2018-10-02T00:39:39.557Z,99.4
2018-10-02T00:40:40.220Z,99.4
2018-10-02T00:41:40.883Z,99.4
2018-10-02T00:42:41.548Z,99.1
2018-10-02T00:43:42.212Z,99.1
2018-10-02T00:44:42.879Z,99.9
2018-10-02T00:45:43.543Z,99.5
2018-10-02T00:46:44.209Z,100.0
2018-10-02T00:47:44.874Z,100.0
2018-10-02T00:48:45.539Z,100.0
2018-10-02T00:49:46.206Z,100.0
2018-10-02T00:50:46.912Z,100.0
2018-10-02T00:51:47.578Z,99.9
2018-10-02T00:52:48.243Z,100.0
2018-10-02T00:53:48.909Z,100.0
2018-10-02T00:54:49.575Z,100.0
2018-10-02T00:55:50.240Z,100.0
2018-10-02T00:56:50.950Z,100.0
2018-10-02T00:57:51.616Z,100.0
2018-10-02T00:58:52.281Z,100.0
2018-10-02T00:59:52.950Z,100.0
2018-10-02T01:00:53.639Z,100.0
2018-10-02T01:01:54.325Z,99.9
2018-10-02T01:02:55.028Z,100.0
2018-10-02T01:03:55.698Z,100.0
2018-10-02T01:04:56.362Z,100.0
2018-10-02T01:05:57.027Z,100.0
2018-10-02T01:06:57.694Z,100.0
2018-10-02T01:07:58.357Z,100.0
2018-10-02T01:08:59.023Z,100.0
2018-10-02T01:09:59.689Z,100.0
2018-10-02T01:11:00.356Z,100.0
2018-10-02T01:12:01.022Z,100.0
2018-10-02T01:13:01.687Z,100.0
2018-10-02T01:14:02.353Z,100.0
2018-10-02T01:15:03.017Z,100.0
2018-10-02T01:16:03.683Z,100.0
2018-10-02T01:17:04.352Z,100.0
2018-10-02T01:18:05.015Z,100.0
2018-10-02T01:19:05.681Z,100.0
2018-10-02T01:20:06.347Z,100.0
2018-10-02T01:21:07.011Z,100.0
2018-10-02T01:22:07.677Z,100.0
2018-10-02T01:23:08.384Z,100.0
2018-10-02T01:24:09.053Z,100.0
2018-10-02T01:25:09.715Z,100.0
2018-10-02T01:26:10.380Z,100.0
2018-10-02T01:27:11.080Z,100.0
2018-10-02T01:28:11.752Z,100.0
2018-10-02T01:29:12.418Z,100.0
2018-10-02T01:30:13.083Z,100.0
2018-10-02T01:31:13.750Z,100.0
2018-10-02T01:32:14.414Z,100.0
2018-10-02T01:33:15.080Z,100.0
2018-10-02T01:34:15.753Z,100.0
2018-10-02T01:35:16.411Z,100.0
2018-10-02T01:36:17.076Z,100.0
2018-10-02T01:37:17.743Z,100.0
2018-10-02T01:38:18.412Z,100.0
2018-10-02T01:39:19.074Z,100.0
2018-10-02T01:40:19.740Z,100.0
2018-10-02T01:41:20.407Z,100.0
2018-10-02T01:42:21.111Z,100.0
2018-10-02T01:43:21.778Z,100.0
2018-10-02T01:44:22.446Z,100.0
2018-10-02T01:45:23.109Z,99.7
2018-10-02T01:46:23.775Z,99.9
2018-10-02T01:47:24.440Z,99.4
2018-10-02T01:48:25.105Z,99.5
2018-10-02T01:49:25.775Z,99.2
2018-10-02T01:50:26.437Z,98.8
2018-10-02T01:51:27.145Z,98.6
2018-10-02T01:52:27.850Z,98.8
2018-10-02T01:53:28.513Z,98.1
2018-10-02T01:54:29.178Z,97.5
2018-10-02T01:55:29.843Z,97.4
2018-10-02T01:56:30.507Z,96.6
2018-10-02T01:57:31.171Z,96.9
2018-10-02T01:58:31.878Z,96.9
2018-10-02T01:59:32.546Z,97.0
2018-10-02T02:00:33.210Z,97.0
2018-10-02T02:01:33.875Z,97.1
2018-10-02T02:02:34.540Z,97.2
2018-10-02T02:03:35.207Z,97.1
2018-10-02T02:04:35.868Z,97.1
2018-10-02T02:05:36.534Z,96.8
2018-10-02T02:06:37.199Z,97.1
2018-10-02T02:07:37.865Z,96.9
2018-10-02T02:08:38.528Z,96.9
2018-10-02T02:09:39.194Z,96.4
2018-10-02T02:10:39.863Z,97.0
2018-10-02T02:11:40.564Z,97.2
2018-10-02T02:12:41.228Z,97.1
2018-10-02T02:13:41.893Z,96.9
2018-10-02T02:14:42.558Z,96.9
2018-10-02T02:15:43.225Z,97.6
2018-10-02T02:16:43.934Z,97.9
2018-10-02T02:17:44.598Z,97.8
2018-10-02T02:18:45.262Z,97.7
2018-10-02T02:19:45.927Z,98.0
2018-10-02T02:20:46.591Z,98.4
2018-10-02T02:21:47.257Z,98.4
2018-10-02T02:22:47.925Z,98.6
2018-10-02T02:23:48.632Z,98.4
2018-10-02T02:24:49.252Z,98.6
2018-10-02T02:25:49.917Z,98.5
2018-10-02T02:26:50.583Z,98.4
2018-10-02T02:27:51.245Z,98.6
2018-10-02T02:28:51.910Z,99.0
2018-10-02T02:29:52.574Z,99.0
2018-10-02T02:30:53.240Z,99.5
2018-10-02T02:31:53.946Z,99.5
2018-10-02T02:32:54.610Z,99.5
2018-10-02T02:33:55.275Z,99.5
2018-10-02T02:34:55.938Z,99.5
2018-10-02T02:35:56.606Z,99.7
2018-10-02T02:36:57.310Z,99.5
2018-10-02T02:37:57.974Z,99.3
2018-10-02T02:38:58.640Z,99.5
2018-10-02T02:39:59.305Z,100.0
2018-10-02T02:40:59.971Z,100.0
2018-10-02T02:42:00.636Z,99.9
2018-10-02T02:43:01.301Z,100.0
2018-10-02T02:44:01.966Z,100.0
2018-10-02T02:45:02.639Z,100.0
2018-10-02T02:46:03.355Z,100.0
2018-10-02T02:47:04.054Z,100.0
2018-10-02T02:48:04.671Z,100.0
2018-10-02T02:49:05.340Z,100.0
2018-10-02T02:50:06.045Z,99.7
2018-10-02T02:51:06.705Z,99.8
2018-10-02T02:52:07.372Z,99.8
2018-10-02T02:53:08.036Z,99.9
2018-10-02T02:54:08.699Z,99.8
2018-10-02T02:55:09.364Z,100.0
2018-10-02T02:56:10.031Z,100.0
2018-10-02T02:57:10.695Z,99.9
2018-10-02T02:58:11.364Z,100.0
2018-10-02T02:59:12.067Z,100.0
2018-10-02T03:00:12.732Z,99.9
2018-10-02T03:01:13.396Z,100.0
2018-10-02T03:02:14.061Z,100.0
2018-10-02T03:03:14.731Z,100.0
2018-10-02T03:04:15.391Z,100.0
2018-10-02T03:05:16.057Z,100.0
2018-10-02T03:06:16.724Z,100.0
2018-10-02T03:07:17.390Z,100.0
2018-10-02T03:08:18.054Z,100.0
2018-10-02T03:09:18.721Z,100.0
2018-10-02T03:10:19.384Z,100.0
2018-10-02T03:11:20.049Z,100.0
2018-10-02T03:12:20.715Z,99.9
2018-10-02T03:13:21.380Z,99.9
2018-10-02T03:14:22.044Z,100.0
2018-10-02T03:15:22.709Z,100.0
2018-10-02T03:16:23.419Z,100.0
2018-10-02T03:17:24.080Z,100.0
2018-10-02T03:18:24.745Z,100.0
2018-10-02T03:19:25.410Z,99.9
2018-10-02T03:20:26.078Z,100.0
2018-10-02T03:21:26.784Z,100.0
2018-10-02T03:22:27.448Z,100.0
2018-10-02T03:23:28.115Z,99.9
2018-10-02T03:24:28.777Z,100.0
2018-10-02T03:25:29.441Z,99.6
2018-10-02T03:26:30.104Z,99.7
2018-10-02T03:27:30.769Z,99.6
2018-10-02T03:28:31.435Z,99.4
2018-10-02T03:29:32.103Z,99.3
2018-10-02T03:30:32.765Z,98.7
2018-10-02T03:31:33.472Z,98.5
2018-10-02T03:32:34.177Z,98.4
2018-10-02T03:33:34.840Z,98.3
2018-10-02T03:34:35.504Z,98.3
2018-10-02T03:35:36.169Z,98.4
2018-10-02T03:36:36.835Z,97.9
2018-10-02T03:37:37.547Z,97.8
2018-10-02T03:38:38.167Z,98.1
2018-10-02T03:39:38.843Z,97.5
2018-10-02T03:40:39.492Z,97.6
2018-10-02T03:41:40.157Z,98.0
2018-10-02T03:42:40.821Z,98.1
2018-10-02T03:43:41.494Z,97.6
2018-10-02T03:44:42.193Z,97.9
2018-10-02T03:45:42.858Z,97.8
2018-10-02T03:46:43.521Z,97.8
2018-10-02T03:47:44.185Z,97.9
2018-10-02T03:48:44.916Z,97.9
2018-10-02T03:49:45.515Z,97.9
2018-10-02T03:50:46.220Z,98.0
2018-10-02T03:51:46.886Z,97.6
2018-10-02T03:52:47.550Z,97.7
2018-10-02T03:53:48.214Z,98.6
2018-10-02T03:54:48.878Z,98.4
2018-10-02T03:55:49.544Z,97.9
2018-10-02T03:56:50.207Z,98.0
2018-10-02T03:57:50.869Z,98.4
2018-10-02T03:58:51.536Z,98.4
2018-10-02T03:59:52.198Z,98.4
2018-10-02T04:00:52.865Z,97.7
2018-10-02T04:01:53.526Z,98.0
2018-10-02T04:02:54.190Z,98.4
2018-10-02T04:03:54.855Z,98.0
2018-10-02T04:04:55.519Z,98.1
2018-10-02T04:05:56.183Z,97.9
2018-10-02T04:06:56.850Z,97.7
2018-10-02T04:07:57.516Z,98.4
2018-10-02T04:08:58.179Z,98.2
2018-10-02T04:09:58.843Z,98.3
2018-10-02T04:10:59.508Z,98.4
2018-10-02T04:12:00.171Z,98.0
2018-10-02T04:13:00.902Z,98.0
2018-10-02T04:14:01.499Z,98.1
2018-10-02T04:15:02.179Z,98.0
2018-10-02T04:16:02.871Z,98.0
2018-10-02T04:17:03.534Z,98.0
2018-10-02T04:18:04.198Z,98.1
2018-10-02T04:19:04.863Z,98.2
2018-10-02T04:20:05.531Z,98.1
2018-10-02T04:21:06.190Z,98.4
2018-10-02T04:22:06.853Z,98.4
2018-10-02T04:23:07.520Z,97.7
2018-10-02T04:24:08.193Z,97.2
2018-10-02T04:25:08.850Z,97.5
2018-10-02T04:26:09.514Z,96.8
2018-10-02T04:27:10.183Z,96.8
2018-10-02T04:28:10.848Z,96.6
2018-10-02T04:29:11.506Z,96.1
2018-10-02T04:30:12.170Z,96.3
2018-10-02T04:31:12.837Z,95.9
2018-10-02T04:32:13.504Z,96.2
2018-10-02T04:33:14.208Z,95.9
2018-10-02T04:34:14.938Z,95.8
2018-10-02T04:35:15.537Z,95.3
2018-10-02T04:36:16.201Z,94.9
2018-10-02T04:37:16.880Z,94.7
2018-10-02T04:38:17.573Z,95.4
2018-10-02T04:39:18.280Z,94.8
2018-10-02T04:40:18.904Z,95.1
2018-10-02T04:41:19.569Z,94.6
2018-10-02T04:42:20.234Z,94.7
2018-10-02T04:43:20.897Z,94.5
2018-10-02T04:44:21.562Z,94.6
2018-10-02T04:45:22.226Z,94.7
2018-10-02T04:46:22.894Z,95.1
2018-10-02T04:47:23.599Z,94.9
2018-10-02T04:48:24.262Z,94.9
2018-10-02T04:49:24.928Z,94.7
2018-10-02T04:50:25.607Z,95.1
2018-10-02T04:51:26.258Z,95.0
2018-10-02T04:52:26.921Z,94.9
2018-10-02T04:53:27.589Z,95.4
2018-10-02T04:54:28.295Z,94.7
2018-10-02T04:55:28.959Z,95.2
2018-10-02T04:56:29.623Z,95.4
2018-10-02T04:57:30.288Z,95.2
2018-10-02T04:58:30.953Z,95.3
2018-10-02T04:59:31.618Z,95.2
2018-10-02T05:00:32.285Z,95.3
2018-10-02T05:01:32.995Z,95.3
2018-10-02T05:02:33.661Z,95.7
2018-10-02T05:03:34.327Z,95.3
2018-10-02T05:04:34.998Z,95.1
2018-10-02T05:05:35.660Z,95.1
2018-10-02T05:06:36.325Z,95.2
2018-10-02T05:07:36.991Z,95.3
2018-10-02T05:08:37.660Z,95.3
2018-10-02T05:09:38.322Z,95.3
2018-10-02T05:10:38.994Z,95.4
2018-10-02T05:11:39.698Z,95.2
2018-10-02T05:12:40.368Z,95.4
2018-10-02T05:13:41.033Z,95.5
2018-10-02T05:14:41.698Z,95.6
2018-10-02T05:15:42.365Z,95.0
2018-10-02T05:16:43.033Z,95.5
2018-10-02T05:17:43.700Z,95.3
2018-10-02T05:18:44.409Z,95.0
2018-10-02T05:19:45.075Z,95.1
2018-10-02T05:20:45.851Z,95.1
2018-10-02T05:21:46.409Z,94.7
2018-10-02T05:22:47.076Z,94.4
2018-10-02T05:23:47.744Z,94.4
2018-10-02T05:24:48.411Z,94.5
2018-10-02T05:25:49.102Z,94.5
2018-10-02T05:26:49.794Z,94.1
2018-10-02T05:27:50.516Z,94.2
2018-10-02T05:28:51.132Z,94.1
2018-10-02T05:29:51.800Z,94.7
2018-10-02T05:30:52.467Z,94.5
2018-10-02T05:31:53.137Z,94.4
2018-10-02T05:32:53.868Z,94.1
2018-10-02T05:33:54.472Z,93.4
2018-10-02T05:34:55.218Z,93.9
2018-10-02T05:35:55.814Z,94.3
2018-10-02T05:36:56.476Z,94.3
2018-10-02T05:37:57.145Z,94.5
2018-10-02T05:38:57.813Z,94.4
2018-10-02T05:39:58.482Z,94.1
2018-10-02T05:40:59.150Z,93.6
2018-10-02T05:41:59.820Z,93.7
2018-10-02T05:43:00.489Z,93.9
2018-10-02T05:44:01.159Z,93.3
2018-10-02T05:45:01.828Z,92.6
2018-10-02T05:46:02.498Z,93.1
2018-10-02T05:47:03.165Z,92.9
2018-10-02T05:48:03.837Z,93.3
2018-10-02T05:49:04.507Z,92.9
2018-10-02T05:50:05.176Z,92.5
2018-10-02T05:51:05.848Z,92.3
2018-10-02T05:52:06.518Z,91.8
2018-10-02T05:53:07.229Z,91.5
2018-10-02T05:54:07.896Z,90.9
2018-10-02T05:55:08.566Z,91.0
2018-10-02T05:56:09.236Z,90.8
2018-10-02T05:57:09.905Z,90.1
2018-10-02T05:58:10.608Z,90.1
2018-10-02T05:59:11.244Z,90.1
2018-10-02T06:00:11.928Z,89.2
2018-10-02T06:01:12.627Z,88.6
2018-10-02T06:02:13.295Z,88.7
2018-10-02T06:03:14.012Z,88.7
2018-10-02T06:04:14.680Z,88.1
2018-10-02T06:05:15.391Z,88.4
2018-10-02T06:06:16.060Z,88.3
2018-10-02T06:07:16.732Z,88.4
2018-10-02T06:08:17.401Z,88.5
2018-10-02T06:09:18.071Z,88.3
2018-10-02T06:10:18.740Z,88.1
2018-10-02T06:11:19.412Z,88.1
2018-10-02T06:12:20.081Z,88.4
2018-10-02T06:13:20.752Z,87.5
2018-10-02T06:14:21.422Z,88.4
2018-10-02T06:15:22.094Z,87.5
2018-10-02T06:16:22.765Z,88.1
2018-10-02T06:17:23.434Z,87.7
2018-10-02T06:18:24.106Z,87.6
2018-10-02T06:19:24.775Z,87.6
2018-10-02T06:20:25.446Z,87.3
2018-10-02T06:21:26.117Z,86.9
2018-10-02T06:22:26.788Z,86.6
2018-10-02T06:23:27.459Z,86.6
2018-10-02T06:24:28.149Z,86.3
2018-10-02T06:25:28.799Z,86.5
2018-10-02T06:26:29.476Z,86.5
2018-10-02T06:27:30.141Z,86.6
2018-10-02T06:28:30.810Z,85.7
2018-10-02T06:29:31.481Z,85.6
2018-10-02T06:30:32.151Z,85.7
2018-10-02T06:31:32.824Z,85.7
2018-10-02T06:32:33.497Z,86.0
2018-10-02T06:33:34.165Z,85.7
2018-10-02T06:34:34.835Z,84.9
2018-10-02T06:35:35.512Z,84.9
2018-10-02T06:36:36.257Z,84.9
2018-10-02T06:37:36.894Z,84.5
2018-10-02T06:38:37.896Z,84.7
2018-10-02T06:39:38.280Z,84.1
2018-10-02T06:40:38.949Z,84.1
2018-10-02T06:41:39.620Z,83.3
2018-10-02T06:42:40.289Z,82.4
2018-10-02T06:43:40.997Z,82.9
2018-10-02T06:44:41.742Z,82.4
2018-10-02T06:45:42.302Z,82.4
2018-10-02T06:46:42.971Z,82.0
2018-10-02T06:47:43.643Z,81.4
2018-10-02T06:48:44.315Z,81.3
2018-10-02T06:49:44.988Z,80.7
2018-10-02T06:50:45.662Z,80.9
2018-10-02T06:51:46.420Z,80.5
2018-10-02T06:52:47.084Z,81.4
2018-10-02T06:53:47.705Z,81.0
2018-10-02T06:54:48.376Z,81.5
2018-10-02T06:55:49.050Z,81.1
2018-10-02T06:56:49.753Z,81.0
2018-10-02T06:57:50.393Z,81.0
2018-10-02T06:58:51.064Z,80.9
2018-10-02T06:59:51.736Z,81.0
2018-10-02T07:00:52.453Z,80.6
2018-10-02T07:01:53.158Z,80.3
2018-10-02T07:02:53.907Z,80.1
2018-10-02T07:03:54.514Z,80.4
2018-10-02T07:04:55.186Z,80.1
2018-10-02T07:05:55.858Z,80.6
2018-10-02T07:06:56.531Z,80.5
2018-10-02T07:07:57.246Z,80.5
2018-10-02T07:08:58.002Z,79.6
2018-10-02T07:09:58.591Z,79.1
2018-10-02T07:10:59.265Z,79.1
2018-10-02T07:11:59.935Z,78.7
2018-10-02T07:13:00.611Z,78.2
2018-10-02T07:14:01.283Z,78.1
2018-10-02T07:15:02.054Z,77.9
2018-10-02T07:16:02.719Z,77.5
2018-10-02T07:17:03.397Z,77.3
2018-10-02T07:18:04.075Z,77.4
2018-10-02T07:19:04.749Z,77.5
2018-10-02T07:20:05.422Z,77.5
2018-10-02T07:21:06.106Z,77.2
2018-10-02T07:22:06.767Z,77.3
2018-10-02T07:23:07.441Z,76.6
2018-10-02T07:24:08.125Z,77.7
2018-10-02T07:25:08.828Z,78.1
2018-10-02T07:26:09.501Z,77.4
2018-10-02T07:27:10.306Z,78.0
2018-10-02T07:28:10.860Z,77.7
2018-10-02T07:29:11.562Z,77.7
2018-10-02T07:30:12.242Z,77.3
2018-10-02T07:31:12.909Z,77.5
2018-10-02T07:32:13.589Z,78.0
2018-10-02T07:33:14.300Z,77.9
2018-10-02T07:34:14.974Z,77.9
2018-10-02T07:35:15.647Z,77.4
2018-10-02T07:36:16.321Z,77.4
2018-10-02T07:37:17.046Z,77.4
2018-10-02T07:38:17.747Z,76.9
2018-10-02T07:39:18.439Z,76.8
2018-10-02T07:40:19.113Z,76.4
2018-10-02T07:41:19.787Z,75.9
2018-10-02T07:42:20.481Z,76.3
2018-10-02T07:43:21.135Z,76.5
2018-10-02T07:44:21.819Z,76.0
2018-10-02T07:45:22.483Z,76.2
2018-10-02T07:46:23.157Z,75.4
2018-10-02T07:47:23.884Z,75.2
2018-10-02T07:48:24.617Z,75.4
2018-10-02T07:49:25.213Z,74.9
2018-10-02T07:50:25.975Z,75.3
2018-10-02T07:51:26.561Z,75.4
2018-10-02T07:52:27.235Z,75.0
2018-10-02T07:53:27.958Z,75.4
2018-10-02T07:54:28.582Z,75.9
2018-10-02T07:55:29.283Z,76.3
2018-10-02T07:56:29.951Z,76.2
2018-10-02T07:57:30.605Z,76.0
2018-10-02T07:58:31.278Z,75.7
2018-10-02T07:59:31.960Z,75.7
2018-10-02T08:00:32.627Z,76.0
2018-10-02T08:01:33.300Z,75.7
2018-10-02T08:02:33.989Z,76.4
2018-10-02T08:03:34.649Z,75.3
2018-10-02T08:04:35.324Z,75.5
2018-10-02T08:05:36.071Z,75.6
2018-10-02T08:06:36.670Z,75.7
2018-10-02T08:07:37.344Z,75.2
2018-10-02T08:08:38.076Z,75.7
2018-10-02T08:09:38.693Z,76.3
2018-10-02T08:10:39.368Z,75.6
2018-10-02T08:11:40.084Z,76.1
2018-10-02T08:12:40.715Z,76.0
2018-10-02T08:13:41.422Z,76.3
2018-10-02T08:14:42.142Z,76.6
2018-10-02T08:15:42.770Z,76.1
2018-10-02T08:16:43.443Z,75.7
2018-10-02T08:17:44.153Z,75.6
2018-10-02T08:18:44.790Z,75.8
2018-10-02T08:19:45.480Z,75.6
2018-10-02T08:20:46.173Z,75.7
2018-10-02T08:21:46.808Z,76.1
2018-10-02T08:22:47.524Z,76.2
2018-10-02T08:23:48.201Z,75.7
2018-10-02T08:24:48.870Z,76.1
2018-10-02T08:25:49.586Z,76.3
2018-10-02T08:26:50.268Z,76.4
2018-10-02T08:27:50.937Z,76.6
2018-10-02T08:28:51.609Z,76.6
2018-10-02T08:29:52.343Z,76.0
2018-10-02T08:30:52.957Z,75.6
2018-10-02T08:31:53.632Z,75.6
2018-10-02T08:32:54.322Z,75.7
2018-10-02T08:33:55.027Z,75.7
2018-10-02T08:34:55.698Z,75.5
2018-10-02T08:35:56.559Z,75.5
2018-10-02T08:36:57.045Z,75.3
2018-10-02T08:37:57.718Z,74.8
2018-10-02T08:38:58.460Z,74.5
2018-10-02T08:39:59.068Z,74.2
2018-10-02T08:40:59.742Z,73.4
2018-10-02T08:42:00.510Z,72.3
2018-10-02T08:43:01.132Z,71.1
2018-10-02T08:44:01.811Z,71.0
2018-10-02T08:45:02.514Z,70.8
2018-10-02T08:46:03.160Z,70.5
2018-10-02T08:47:03.835Z,70.3
2018-10-02T08:48:04.514Z,70.0
2018-10-02T08:49:05.184Z,70.6
2018-10-02T08:50:05.860Z,72.2
2018-10-02T08:51:06.584Z,72.5
2018-10-02T08:52:07.418Z,72.6
2018-10-02T08:53:07.958Z,73.9
2018-10-02T08:54:08.633Z,74.3
2018-10-02T08:55:09.349Z,74.4
2018-10-02T08:56:10.025Z,75.2
2018-10-02T08:57:10.703Z,75.8
2018-10-02T08:58:11.419Z,75.8
2018-10-02T08:59:12.092Z,77.0
2018-10-02T09:00:12.768Z,77.4
2018-10-02T09:01:13.510Z,78.3
2018-10-02T09:02:14.115Z,79.0
2018-10-02T09:03:14.829Z,79.5
2018-10-02T09:04:15.467Z,79.7
2018-10-02T09:05:16.142Z,80.0
2018-10-02T09:06:16.858Z,81.0
2018-10-02T09:07:17.578Z,81.2
2018-10-02T09:08:18.249Z,80.7
2018-10-02T09:09:18.922Z,80.4
2018-10-02T09:10:19.598Z,80.7
2018-10-02T09:11:20.276Z,80.8
2018-10-02T09:12:20.946Z,80.2
2018-10-02T09:13:21.619Z,79.3
2018-10-02T09:14:22.298Z,79.9
2018-10-02T09:15:23.029Z,80.9
2018-10-02T09:16:23.753Z,81.3
2018-10-02T09:17:24.396Z,81.5
2018-10-02T09:18:25.077Z,81.2
2018-10-02T09:19:25.792Z,80.7
2018-10-02T09:20:26.462Z,80.4
2018-10-02T09:21:27.155Z,81.0
2018-10-02T09:22:27.812Z,82.0
2018-10-02T09:23:28.487Z,81.2
2018-10-02T09:24:29.188Z,82.6
2018-10-02T09:25:29.834Z,80.8
2018-10-02T09:26:30.555Z,80.7
2018-10-02T09:27:31.323Z,80.9
2018-10-02T09:28:31.970Z,81.4
2018-10-02T09:29:32.566Z,81.9
2018-10-02T09:30:33.279Z,81.9
2018-10-02T09:31:33.916Z,82.6
2018-10-02T09:32:34.598Z,83.0
2018-10-02T09:33:35.367Z,83.4
2018-10-02T09:34:35.981Z,82.7
2018-10-02T09:35:36.658Z,82.6
2018-10-02T09:36:37.367Z,82.7
2018-10-02T09:37:38.007Z,81.7
2018-10-02T09:38:38.682Z,82.2
2018-10-02T09:39:39.426Z,82.0
2018-10-02T09:40:40.030Z,82.1
2018-10-02T09:41:40.704Z,82.6
2018-10-02T09:42:41.437Z,83.0
2018-10-02T09:43:42.119Z,83.4
2018-10-02T09:44:42.760Z,82.7
2018-10-02T09:45:43.436Z,82.4
2018-10-02T09:46:44.108Z,82.7
2018-10-02T09:47:44.783Z,81.9
2018-10-02T09:48:45.463Z,82.0
2018-10-02T09:49:46.134Z,83.0
2018-10-02T09:50:46.849Z,83.4
2018-10-02T09:51:47.533Z,83.1
2018-10-02T09:52:48.149Z,83.3
2018-10-02T09:53:48.844Z,82.9
2018-10-02T09:54:49.584Z,83.4
2018-10-02T09:55:50.260Z,83.6
2018-10-02T09:56:51.198Z,83.7
2018-10-02T09:57:51.814Z,83.7
2018-10-02T09:58:52.488Z,83.4
2018-10-02T09:59:53.163Z,83.5
2018-10-02T10:00:53.895Z,83.2
2018-10-02T10:01:54.531Z,82.6
2018-10-02T10:02:55.247Z,81.5
2018-10-02T10:03:55.935Z,81.4
2018-10-02T10:04:56.621Z,81.6
2018-10-02T10:05:57.298Z,81.9
2018-10-02T10:06:57.970Z,81.6
2018-10-02T10:07:58.642Z,80.6
2018-10-02T10:08:59.318Z,80.0
2018-10-02T10:09:59.990Z,80.6
2018-10-02T10:11:00.666Z,80.6
2018-10-02T10:12:01.341Z,80.4
2018-10-02T10:13:02.017Z,80.0
2018-10-02T10:14:02.689Z,80.1
2018-10-02T10:15:03.362Z,81.1
2018-10-02T10:16:04.036Z,80.7
2018-10-02T10:17:04.760Z,80.6
2018-10-02T10:18:05.383Z,80.7
2018-10-02T10:19:06.059Z,80.1
2018-10-02T10:20:06.733Z,81.0
2018-10-02T10:21:07.436Z,80.7
2018-10-02T10:22:08.124Z,80.6
2018-10-02T10:23:08.800Z,80.2
2018-10-02T10:24:09.474Z,80.1
2018-10-02T10:25:10.150Z,79.6
2018-10-02T10:26:10.820Z,79.2
2018-10-02T10:27:11.494Z,79.0
2018-10-02T10:28:12.208Z,79.0
2018-10-02T10:29:12.889Z,79.7
2018-10-02T10:30:13.562Z,79.5
2018-10-02T10:31:14.239Z,80.1
2018-10-02T10:32:15.118Z,79.5
2018-10-02T10:33:15.792Z,80.0
2018-10-02T10:34:16.479Z,80.0
2018-10-02T10:35:17.185Z,79.2
2018-10-02T10:36:17.896Z,78.8
2018-10-02T10:37:18.573Z,79.8
2018-10-02T10:38:19.250Z,78.8
2018-10-02T10:39:19.966Z,78.0
2018-10-02T10:40:20.644Z,78.5
2018-10-02T10:41:21.315Z,79.0
2018-10-02T10:42:21.990Z,78.2
2018-10-02T10:43:22.665Z,78.5
2018-10-02T10:44:23.425Z,79.0
2018-10-02T10:45:24.098Z,78.3
2018-10-02T10:46:24.809Z,78.5
2018-10-02T10:47:25.450Z,78.2
2018-10-02T10:48:26.123Z,78.3
2018-10-02T10:49:26.801Z,77.6
2018-10-02T10:50:27.512Z,78.3
2018-10-02T10:51:28.187Z,78.9
2018-10-02T10:52:28.934Z,78.4
2018-10-02T10:53:29.540Z,78.5
2018-10-02T10:54:30.254Z,78.4
2018-10-02T10:55:30.930Z,78.4
2018-10-02T10:56:31.675Z,77.8
2018-10-02T10:57:32.628Z,78.2
2018-10-02T10:58:33.306Z,78.3
2018-10-02T10:59:33.947Z,78.5
2018-10-02T11:00:34.623Z,78.3
2018-10-02T11:01:35.303Z,77.8
2018-10-02T11:02:35.970Z,78.4
2018-10-02T11:03:36.646Z,77.6
2018-10-02T11:04:37.384Z,77.9
2018-10-02T11:05:38.003Z,78.5
2018-10-02T11:06:38.713Z,78.0
2018-10-02T11:07:39.388Z,78.5
2018-10-02T11:08:40.063Z,79.1
2018-10-02T11:09:40.738Z,79.2
2018-10-02T11:10:41.420Z,78.3
2018-10-02T11:11:42.132Z,77.5
2018-10-02T11:12:42.851Z,76.5
2018-10-02T11:13:43.568Z,76.0
2018-10-02T11:14:44.246Z,76.1
2018-10-02T11:15:44.916Z,75.7
2018-10-02T11:16:45.589Z,76.6
2018-10-02T11:17:46.265Z,76.6
2018-10-02T11:18:46.967Z,77.5
2018-10-02T11:19:47.657Z,77.1
2018-10-02T11:20:48.333Z,77.1
2018-10-02T11:21:49.013Z,77.4
2018-10-02T11:22:49.681Z,78.4
2018-10-02T11:23:50.402Z,76.5
2018-10-02T11:24:51.074Z,76.0
2018-10-02T11:25:51.829Z,77.0
2018-10-02T11:26:52.423Z,77.8
2018-10-02T11:27:53.142Z,77.2
2018-10-02T11:28:53.816Z,78.0
2018-10-02T11:29:54.572Z,79.0
2018-10-02T11:30:55.164Z,78.3
2018-10-02T11:31:55.837Z,79.3
2018-10-02T11:32:56.512Z,79.1
2018-10-02T11:33:57.185Z,79.4
2018-10-02T11:34:57.859Z,79.1
2018-10-02T11:35:58.593Z,79.0
2018-10-02T11:36:59.311Z,79.2
2018-10-02T11:38:00.016Z,77.7
2018-10-02T11:39:00.731Z,78.5
2018-10-02T11:40:01.406Z,79.6
2018-10-02T11:41:02.084Z,80.1
2018-10-02T11:42:02.798Z,80.1
2018-10-02T11:43:03.519Z,81.3
2018-10-02T11:44:04.157Z,80.8
2018-10-02T11:45:04.913Z,80.5
2018-10-02T11:46:05.495Z,79.6
2018-10-02T11:47:06.168Z,78.8
2018-10-02T11:48:06.844Z,78.4
2018-10-02T11:49:07.569Z,77.3
2018-10-02T11:50:08.193Z,76.5
2018-10-02T11:51:08.867Z,76.4
2018-10-02T11:52:09.574Z,76.3
2018-10-02T11:53:10.275Z,75.8
2018-10-02T11:54:10.978Z,75.4
2018-10-02T11:55:11.726Z,75.3
2018-10-02T11:56:12.346Z,74.9
2018-10-02T11:57:13.045Z,74.2
2018-10-02T11:58:13.726Z,73.9
2018-10-02T11:59:14.396Z,74.2
2018-10-02T12:00:15.070Z,73.9
2018-10-02T12:01:15.886Z,73.5
2018-10-02T12:02:16.463Z,73.7
2018-10-02T12:03:17.202Z,73.7
2018-10-02T12:04:17.847Z,74.3
2018-10-02T12:05:18.524Z,74.4
2018-10-02T12:06:19.198Z,72.6
2018-10-02T12:07:19.874Z,73.2
2018-10-02T12:08:20.549Z,74.0
2018-10-02T12:09:21.224Z,74.5
2018-10-02T12:10:21.898Z,73.9
2018-10-02T12:11:22.586Z,73.4
2018-10-02T12:12:23.254Z,73.2
2018-10-02T12:13:23.990Z,73.3
2018-10-02T12:14:24.875Z,73.2
2018-10-02T12:15:25.353Z,73.6
2018-10-02T12:16:26.029Z,73.2
2018-10-02T12:17:26.747Z,73.4
2018-10-02T12:18:27.421Z,74.2
2018-10-02T12:19:28.157Z,73.5
2018-10-02T12:20:28.779Z,73.6
2018-10-02T12:21:29.491Z,74.1
2018-10-02T12:22:30.167Z,74.0
2018-10-02T12:23:30.907Z,74.2
2018-10-02T12:24:31.569Z,74.4
2018-10-02T12:25:32.275Z,74.3
2018-10-02T12:26:32.952Z,74.2
2018-10-02T12:27:33.626Z,74.2
2018-10-02T12:28:34.300Z,73.7
2018-10-02T12:29:34.977Z,74.2
2018-10-02T12:30:35.650Z,74.5
2018-10-02T12:31:36.322Z,74.3
2018-10-02T12:32:37.039Z,74.5
2018-10-02T12:33:37.713Z,75.1
2018-10-02T12:34:38.388Z,75.6
2018-10-02T12:35:39.064Z,76.3
2018-10-02T12:36:39.737Z,76.0
2018-10-02T12:37:40.409Z,77.0
2018-10-02T12:38:41.094Z,77.9
2018-10-02T12:39:41.768Z,77.7
2018-10-02T12:40:42.471Z,78.1
2018-10-02T12:41:43.145Z,77.8
2018-10-02T12:42:43.816Z,77.7
2018-10-02T12:43:44.488Z,77.1
2018-10-02T12:44:45.165Z,77.6
2018-10-02T12:45:45.838Z,77.4
2018-10-02T12:46:46.543Z,77.4
2018-10-02T12:47:47.184Z,77.4
2018-10-02T12:48:47.899Z,77.7
2018-10-02T12:49:48.575Z,77.5
2018-10-02T12:50:49.245Z,77.6
2018-10-02T12:51:49.918Z,77.9
2018-10-02T12:52:50.722Z,77.7
2018-10-02T12:53:51.265Z,77.6
2018-10-02T12:54:51.935Z,77.6
2018-10-02T12:55:52.610Z,77.5
2018-10-02T12:56:53.284Z,77.8
2018-10-02T12:57:53.955Z,78.2
2018-10-02T12:58:54.660Z,78.3
2018-10-02T12:59:55.303Z,77.6
2018-10-02T13:00:55.976Z,77.7
2018-10-02T13:01:56.648Z,78.1
2018-10-02T13:02:57.323Z,78.4
2018-10-02T13:03:57.995Z,78.3
2018-10-02T13:04:58.670Z,77.9
2018-10-02T13:05:59.340Z,78.1
2018-10-02T13:07:00.070Z,78.0
2018-10-02T13:08:01.073Z,78.6
2018-10-02T13:09:01.680Z,78.4
2018-10-02T13:10:02.434Z,78.2
2018-10-02T13:11:03.028Z,77.9
2018-10-02T13:12:03.700Z,78.1
2018-10-02T13:13:04.437Z,78.2
2018-10-02T13:14:05.077Z,78.5
2018-10-02T13:15:05.750Z,78.2
2018-10-02T13:16:06.421Z,78.2
2018-10-02T13:17:07.097Z,78.0
2018-10-02T13:18:07.771Z,78.0
2018-10-02T13:19:08.486Z,78.3
2018-10-02T13:20:09.163Z,78.1
2018-10-02T13:21:09.875Z,78.5
2018-10-02T13:22:10.550Z,78.4
2018-10-02T13:23:11.218Z,78.5
2018-10-02T13:24:11.892Z,78.4